<?xml version="1.0" encoding="UTF-8" standalone="no" ?>
<gpx xmlns="http://www.topografix.com/GPX/1/1" xmlns:xsi="http://www.w3.org/2001/XMLSchema-instance" xsi:schemaLocation="http://www.topografix.com/GPX/1/1 http://www.topografix.com/GPX/1/1/gpx.xsd" version="1.1" creator="VisuGPX - https://www.visugpx.com">
  <metadata>
    <name>Regordane</name>
    <desc><![CDATA[Vista Hcx
Pradelles - La Bastide-Puylaurent
Pluie, vent, froid , départ 4° !
Longue étape, mais belle, beaucoup de revêtement goudronné !
]]></desc>
  </metadata>
  <trk>
    <name><![CDATA[ACTIVE LOG081139]]></name>
    <trkseg>
      <trkpt lat="44.76849" lon="3.88125">
        <ele>1108.371</ele>
        <time>2011-06-01T06:11:39Z</time>
      </trkpt>
      <trkpt lat="44.76849" lon="3.88125">
        <ele>1107.898</ele>
        <time>2011-06-01T06:11:48Z</time>
      </trkpt>
      <trkpt lat="44.76849" lon="3.88125">
        <ele>1107.169</ele>
        <time>2011-06-01T06:11:58Z</time>
      </trkpt>
      <trkpt lat="44.76849" lon="3.88125">
        <ele>1107.589</ele>
        <time>2011-06-01T06:12:07Z</time>
      </trkpt>
      <trkpt lat="44.76849" lon="3.88125">
        <ele>1107.637</ele>
        <time>2011-06-01T06:12:18Z</time>
      </trkpt>
      <trkpt lat="44.76849" lon="3.88125">
        <ele>1108.696</ele>
        <time>2011-06-01T06:12:28Z</time>
      </trkpt>
      <trkpt lat="44.76849" lon="3.88125">
        <ele>1109.203</ele>
        <time>2011-06-01T06:12:38Z</time>
      </trkpt>
      <trkpt lat="44.76849" lon="3.88125">
        <ele>1110.488</ele>
        <time>2011-06-01T06:12:47Z</time>
      </trkpt>
      <trkpt lat="44.76849" lon="3.88125">
        <ele>1111.756</ele>
        <time>2011-06-01T06:12:57Z</time>
      </trkpt>
      <trkpt lat="44.76849" lon="3.88125">
        <ele>1112.535</ele>
        <time>2011-06-01T06:13:06Z</time>
      </trkpt>
      <trkpt lat="44.76849" lon="3.88125">
        <ele>1113.569</ele>
        <time>2011-06-01T06:13:16Z</time>
      </trkpt>
      <trkpt lat="44.76849" lon="3.88125">
        <ele>1112.987</ele>
        <time>2011-06-01T06:13:25Z</time>
      </trkpt>
      <trkpt lat="44.76849" lon="3.88125">
        <ele>1113.846</ele>
        <time>2011-06-01T06:13:35Z</time>
      </trkpt>
      <trkpt lat="44.76849" lon="3.88125">
        <ele>1114.11</ele>
        <time>2011-06-01T06:13:45Z</time>
      </trkpt>
      <trkpt lat="44.76849" lon="3.88125">
        <ele>1113.978</ele>
        <time>2011-06-01T06:13:55Z</time>
      </trkpt>
    </trkseg>
  </trk>
</gpx>